Terminal Aerodrome Forecast
Issued by NWS Bismarck, ND

Home | Current Version | Previous Version | Graphics & Text | Print | Product List | Glossary On
Versions: 1 2 3 4 5 6 7 8 9 10 11 12 13 14 15 16 17 18 19 20 21 22
000
FTUS43 KBIS 261130
TAFBIS
TAF
KBIS 261130Z 2612/2712 27010KT P6SM BKN035
     FM261700 29017G25KT P6SM SCT035 BKN060
     FM262100 30017G25KT P6SM SCT060 BKN090
     FM270100 30008KT P6SM FEW070 FEW130=

USA.gov is the U.S. government's official web portal to all federal, state and local government web resources and services.